Urb Las Antillas, Puerto Rico
Current Conditions -  °F | °C
As of 4:50 PM on Tuesday 27 Jan 2015 (Local Time) from TJPS Reporting Station
Broken Clouds Broken Clouds  
Wind Chill: 84°   Ceiling: 6000
Heat Index: 91°   Visibility: 10mi
Dew Point: 73°   Wind: 12mph
Humidity: 70%   Direction: 160°SSE
Pressure: 29.93"   Gusts: NA
Location:  17.9903°N, 66.2815°W
Report Text: TJPS 272050Z 16010KT 10SM FEW020 BKN060 29/23 A2993
Loading
Personal Weather Stations






























Interactive Weather Map New forecast layout! Learn more

10-Day Weather Forecast

Advertisements
Track Severe Weather on mobile